sensor_id;sensor_type;location;lat;lon;timestamp;pressure;altitude;pressure_sealevel;temperature;humidity
6528;BME280;64597;42.664;23.256;2023-02-21T00:01:51;94913.59;;;9.24;43.05
6528;BME280;64597;42.664;23.256;2023-02-21T00:04:35;94919.25;;;9.28;43.62
6528;BME280;64597;42.664;23.256;2023-02-21T00:07:19;94924.06;;;9.31;43.67
6528;BME280;64597;42.664;23.256;2023-02-21T00:10:04;94935.31;;;9.20;43.18
6528;BME280;64597;42.664;23.256;2023-02-21T00:12:49;94914.28;;;9.20;42.94
6528;BME280;64597;42.664;23.256;2023-02-21T00:15:33;94912.06;;;9.17;43.74
6528;BME280;64597;42.664;23.256;2023-02-21T00:18:17;94916.25;;;8.99;43.65
6528;BME280;64597;42.664;23.256;2023-02-21T00:21:01;94925.66;;;8.89;43.70
6528;BME280;64597;42.664;23.256;2023-02-21T00:23:45;94921.78;;;8.91;44.43
6528;BME280;64597;42.664;23.256;2023-02-21T00:26:29;94924.22;;;8.93;44.25
6528;BME280;64597;42.664;23.256;2023-02-21T00:29:14;94917.06;;;9.00;43.93
6528;BME280;64597;42.664;23.256;2023-02-21T00:31:58;94886.09;;;8.77;44.50
6528;BME280;64597;42.664;23.256;2023-02-21T00:34:42;94891.41;;;8.95;44.24
6528;BME280;64597;42.664;23.256;2023-02-21T00:37:26;94887.50;;;8.80;44.83
6528;BME280;64597;42.664;23.256;2023-02-21T00:40:11;94902.78;;;8.89;44.38
6528;BME280;64597;42.664;23.256;2023-02-21T00:42:55;94898.84;;;8.80;45.05
6528;BME280;64597;42.664;23.256;2023-02-21T00:45:39;94898.97;;;8.85;44.74
6528;BME280;64597;42.664;23.256;2023-02-21T00:48:23;94908.00;;;8.71;44.78
6528;BME280;64597;42.664;23.256;2023-02-21T00:51:07;94899.25;;;8.77;45.04
6528;BME280;64597;42.664;23.256;2023-02-21T00:53:52;94892.53;;;8.81;45.01
6528;BME280;64597;42.664;23.256;2023-02-21T00:56:36;94892.13;;;8.84;44.70
6528;BME280;64597;42.664;23.256;2023-02-21T00:59:20;94884.81;;;8.86;44.38
6528;BME280;64597;42.664;23.256;2023-02-21T01:02:04;94886.72;;;8.97;44.50
6528;BME280;64597;42.664;23.256;2023-02-21T01:04:49;94879.88;;;8.96;43.57
6528;BME280;64597;42.664;23.256;2023-02-21T01:07:33;94865.28;;;9.00;43.55
6528;BME280;64597;42.664;23.256;2023-02-21T01:10:16;94870.19;;;8.97;44.19
6528;BME280;64597;42.664;23.256;2023-02-21T01:13:00;94845.88;;;9.01;43.81
6528;BME280;64597;42.664;23.256;2023-02-21T01:15:44;94847.88;;;8.99;44.10
6528;BME280;64597;42.664;23.256;2023-02-21T01:18:28;94819.91;;;8.87;43.75
6528;BME280;64597;42.664;23.256;2023-02-21T01:21:14;94847.41;;;9.09;43.69
6528;BME280;64597;42.664;23.256;2023-02-21T01:23:58;94845.78;;;9.08;44.14
6528;BME280;64597;42.664;23.256;2023-02-21T01:26:42;94847.63;;;9.07;44.28
6528;BME280;64597;42.664;23.256;2023-02-21T01:29:25;94844.94;;;8.89;44.06
6528;BME280;64597;42.664;23.256;2023-02-21T01:32:09;94833.69;;;8.82;44.25
6528;BME280;64597;42.664;23.256;2023-02-21T01:34:54;94837.22;;;8.94;44.12
6528;BME280;64597;42.664;23.256;2023-02-21T01:37:39;94846.28;;;8.98;44.00
6528;BME280;64597;42.664;23.256;2023-02-21T01:40:23;94841.78;;;9.05;43.50
6528;BME280;64597;42.664;23.256;2023-02-21T01:43:19;94841.44;;;8.95;43.67
6528;BME280;64597;42.664;23.256;2023-02-21T01:46:04;94818.38;;;8.97;44.01
6528;BME280;64597;42.664;23.256;2023-02-21T01:48:50;94832.97;;;8.93;44.42
6528;BME280;64597;42.664;23.256;2023-02-21T01:51:40;94835.34;;;9.01;43.78
6528;BME280;64597;42.664;23.256;2023-02-21T01:54:37;94819.03;;;8.93;44.15
6528;BME280;64597;42.664;23.256;2023-02-21T01:57:23;94813.38;;;8.71;45.31
6528;BME280;64597;42.664;23.256;2023-02-21T02:00:09;94810.00;;;8.64;46.00
6528;BME280;64597;42.664;23.256;2023-02-21T02:03:07;94819.13;;;8.62;45.83
6528;BME280;64597;42.664;23.256;2023-02-21T02:05:55;94827.34;;;8.47;46.80
6528;BME280;64597;42.664;23.256;2023-02-21T02:08:40;94819.72;;;8.39;46.85
6528;BME280;64597;42.664;23.256;2023-02-21T02:30:44;94796.81;;;8.21;46.91
6528;BME280;64597;42.664;23.256;2023-02-21T02:38:25;94800.16;;;8.04;47.79
6528;BME280;64597;42.664;23.256;2023-02-21T02:41:05;94797.88;;;7.83;48.66
6528;BME280;64597;42.664;23.256;2023-02-21T02:43:34;94799.53;;;7.71;48.98
6528;BME280;64597;42.664;23.256;2023-02-21T02:49:07;94790.38;;;7.48;49.28
6528;BME280;64597;42.664;23.256;2023-02-21T02:51:32;94797.72;;;7.33;49.54
6528;BME280;64597;42.664;23.256;2023-02-21T02:53:58;94806.59;;;7.32;49.89
6528;BME280;64597;42.664;23.256;2023-02-21T02:56:23;94818.28;;;7.36;49.77
6528;BME280;64597;42.664;23.256;2023-02-21T02:59:01;94807.19;;;7.34;49.75
6528;BME280;64597;42.664;23.256;2023-02-21T03:04:05;94812.63;;;7.39;49.76
6528;BME280;64597;42.664;23.256;2023-02-21T03:09:14;94788.25;;;7.32;50.05
6528;BME280;64597;42.664;23.256;2023-02-21T03:12:04;94796.53;;;7.29;50.21
6528;BME280;64597;42.664;23.256;2023-02-21T03:14:56;94782.78;;;7.34;49.74
6528;BME280;64597;42.664;23.256;2023-02-21T03:17:25;94790.69;;;7.27;50.38
6528;BME280;64597;42.664;23.256;2023-02-21T03:19:53;94775.31;;;7.37;49.55
6528;BME280;64597;42.664;23.256;2023-02-21T03:22:23;94767.00;;;7.47;48.50
6528;BME280;64597;42.664;23.256;2023-02-21T03:24:51;94786.66;;;7.63;48.62
6528;BME280;64597;42.664;23.256;2023-02-21T03:27:20;94784.53;;;7.84;47.08
6528;BME280;64597;42.664;23.256;2023-02-21T03:29:48;94779.72;;;8.06;46.56
6528;BME280;64597;42.664;23.256;2023-02-21T03:32:19;94772.00;;;8.17;46.32
6528;BME280;64597;42.664;23.256;2023-02-21T03:34:46;94772.53;;;8.26;46.18
6528;BME280;64597;42.664;23.256;2023-02-21T03:37:39;94766.41;;;8.32;46.41
6528;BME280;64597;42.664;23.256;2023-02-21T03:40:12;94761.97;;;8.32;45.67
6528;BME280;64597;42.664;23.256;2023-02-21T03:42:38;94763.91;;;8.44;45.70
6528;BME280;64597;42.664;23.256;2023-02-21T03:45:04;94774.44;;;8.62;45.00
6528;BME280;64597;42.664;23.256;2023-02-21T03:47:29;94755.84;;;8.63;45.01
6528;BME280;64597;42.664;23.256;2023-02-21T03:49:55;94759.84;;;8.48;45.32
6528;BME280;64597;42.664;23.256;2023-02-21T03:52:20;94773.09;;;8.53;45.61
6528;BME280;64597;42.664;23.256;2023-02-21T03:54:46;94759.78;;;8.54;44.76
6528;BME280;64597;42.664;23.256;2023-02-21T03:57:11;94765.53;;;8.63;45.14
6528;BME280;64597;42.664;23.256;2023-02-21T03:59:37;94748.59;;;8.59;44.56
6528;BME280;64597;42.664;23.256;2023-02-21T04:02:03;94761.97;;;8.75;44.31
6528;BME280;64597;42.664;23.256;2023-02-21T04:04:28;94767.09;;;8.88;43.74
6528;BME280;64597;42.664;23.256;2023-02-21T04:06:54;94767.63;;;8.97;43.57
6528;BME280;64597;42.664;23.256;2023-02-21T04:09:19;94758.47;;;8.99;43.09
6528;BME280;64597;42.664;23.256;2023-02-21T04:11:45;94768.28;;;9.10;43.00
6528;BME280;64597;42.664;23.256;2023-02-21T04:14:11;94778.94;;;9.16;42.55
6528;BME280;64597;42.664;23.256;2023-02-21T04:16:37;94779.81;;;9.09;42.57
6528;BME280;64597;42.664;23.256;2023-02-21T04:19:02;94782.47;;;9.09;42.81
6528;BME280;64597;42.664;23.256;2023-02-21T04:21:28;94798.13;;;9.16;42.78
6528;BME280;64597;42.664;23.256;2023-02-21T04:23:53;94798.06;;;9.23;42.66
6528;BME280;64597;42.664;23.256;2023-02-21T04:26:19;94802.09;;;9.25;42.66
6528;BME280;64597;42.664;23.256;2023-02-21T04:28:44;94808.94;;;9.26;42.90
6528;BME280;64597;42.664;23.256;2023-02-21T04:31:10;94813.84;;;9.23;42.90
6528;BME280;64597;42.664;23.256;2023-02-21T04:33:35;94818.81;;;9.12;43.05
6528;BME280;64597;42.664;23.256;2023-02-21T04:36:01;94810.56;;;8.91;44.19
6528;BME280;64597;42.664;23.256;2023-02-21T04:38:26;94817.34;;;8.80;44.38
6528;BME280;64597;42.664;23.256;2023-02-21T04:40:52;94810.25;;;8.38;45.08
6528;BME280;64597;42.664;23.256;2023-02-21T04:43:17;94829.31;;;8.52;45.77
6528;BME280;64597;42.664;23.256;2023-02-21T04:45:45;94829.03;;;8.35;46.51
6528;BME280;64597;42.664;23.256;2023-02-21T04:48:10;94832.38;;;8.17;46.95
6528;BME280;64597;42.664;23.256;2023-02-21T04:50:36;94831.50;;;7.99;47.53
6528;BME280;64597;42.664;23.256;2023-02-21T04:53:01;94833.88;;;7.69;47.89
6528;BME280;64597;42.664;23.256;2023-02-21T04:55:26;94818.03;;;7.51;48.38
6528;BME280;64597;42.664;23.256;2023-02-21T04:57:52;94803.75;;;7.40;48.58
6528;BME280;64597;42.664;23.256;2023-02-21T05:00:17;94803.09;;;7.52;48.59
6528;BME280;64597;42.664;23.256;2023-02-21T05:02:45;94811.31;;;7.62;48.40
6528;BME280;64597;42.664;23.256;2023-02-21T05:05:11;94810.50;;;7.61;48.42
6528;BME280;64597;42.664;23.256;2023-02-21T05:07:37;94814.19;;;7.54;48.50
6528;BME280;64597;42.664;23.256;2023-02-21T05:10:03;94794.06;;;7.41;48.88
6528;BME280;64597;42.664;23.256;2023-02-21T05:12:30;94793.59;;;7.50;47.90
6528;BME280;64597;42.664;23.256;2023-02-21T05:14:56;94768.91;;;7.65;47.31
6528;BME280;64597;42.664;23.256;2023-02-21T05:17:21;94770.44;;;7.79;47.15
6528;BME280;64597;42.664;23.256;2023-02-21T05:19:46;94769.97;;;7.88;46.96
6528;BME280;64597;42.664;23.256;2023-02-21T05:22:12;94752.94;;;7.97;46.12
6528;BME280;64597;42.664;23.256;2023-02-21T05:24:40;94767.78;;;8.10;46.33
6528;BME280;64597;42.664;23.256;2023-02-21T05:27:06;94779.47;;;8.14;46.50
6528;BME280;64597;42.664;23.256;2023-02-21T05:29:36;94780.91;;;8.10;46.07
6528;BME280;64597;42.664;23.256;2023-02-21T05:32:02;94772.56;;;8.19;45.82
6528;BME280;64597;42.664;23.256;2023-02-21T05:34:27;94760.44;;;8.18;46.30
6528;BME280;64597;42.664;23.256;2023-02-21T05:36:52;94754.34;;;8.24;45.77
6528;BME280;64597;42.664;23.256;2023-02-21T05:39:18;94776.16;;;8.32;45.56
6528;BME280;64597;42.664;23.256;2023-02-21T05:41:50;94772.66;;;8.38;45.10
6528;BME280;64597;42.664;23.256;2023-02-21T05:44:16;94772.59;;;8.44;45.13
6528;BME280;64597;42.664;23.256;2023-02-21T05:46:42;94772.75;;;8.49;44.97
6528;BME280;64597;42.664;23.256;2023-02-21T05:49:08;94790.00;;;8.63;44.74
6528;BME280;64597;42.664;23.256;2023-02-21T05:51:41;94768.97;;;8.63;43.98
6528;BME280;64597;42.664;23.256;2023-02-21T05:54:08;94786.66;;;8.74;44.33
6528;BME280;64597;42.664;23.256;2023-02-21T05:56:38;94767.91;;;8.89;44.17
6528;BME280;64597;42.664;23.256;2023-02-21T05:59:04;94791.28;;;8.97;44.03
6528;BME280;64597;42.664;23.256;2023-02-21T06:01:30;94801.50;;;9.23;43.14
6528;BME280;64597;42.664;23.256;2023-02-21T06:03:55;94798.53;;;9.20;43.31
6528;BME280;64597;42.664;23.256;2023-02-21T06:06:21;94801.88;;;9.27;42.54
6528;BME280;64597;42.664;23.256;2023-02-21T06:08:47;94803.78;;;9.38;43.25
6528;BME280;64597;42.664;23.256;2023-02-21T06:11:14;94804.06;;;9.48;42.67
6528;BME280;64597;42.664;23.256;2023-02-21T06:13:40;94803.28;;;9.77;42.26
6528;BME280;64597;42.664;23.256;2023-02-21T06:16:06;94814.31;;;10.15;41.37
6528;BME280;64597;42.664;23.256;2023-02-21T06:18:31;94817.25;;;10.48;41.14
6528;BME280;64597;42.664;23.256;2023-02-21T06:20:57;94821.75;;;10.83;40.90
6528;BME280;64597;42.664;23.256;2023-02-21T06:23:22;94817.72;;;10.92;41.13
6528;BME280;64597;42.664;23.256;2023-02-21T06:25:48;94818.63;;;11.09;40.41
6528;BME280;64597;42.664;23.256;2023-02-21T06:28:13;94795.09;;;11.30;39.54
6528;BME280;64597;42.664;23.256;2023-02-21T06:30:38;94824.19;;;11.70;39.46
6528;BME280;64597;42.664;23.256;2023-02-21T06:33:04;94826.81;;;11.98;38.83
6528;BME280;64597;42.664;23.256;2023-02-21T06:35:30;94807.44;;;14.60;66.21
6528;BME280;64597;42.664;23.256;2023-02-21T06:37:55;94808.16;;;16.63;44.88
6528;BME280;64597;42.664;23.256;2023-02-21T06:40:20;94806.75;;;16.30;33.29
6528;BME280;64597;42.664;23.256;2023-02-21T06:42:46;94795.16;;;15.70;32.93
6528;BME280;64597;42.664;23.256;2023-02-21T06:45:11;94800.06;;;15.46;33.22
6528;BME280;64597;42.664;23.256;2023-02-21T06:47:37;94805.25;;;15.68;31.87
6528;BME280;64597;42.664;23.256;2023-02-21T06:50:02;94810.63;;;15.93;30.52
6528;BME280;64597;42.664;23.256;2023-02-21T06:52:30;94790.97;;;15.37;30.55
6528;BME280;64597;42.664;23.256;2023-02-21T06:54:55;94777.88;;;15.25;30.97
6528;BME280;64597;42.664;23.256;2023-02-21T06:57:21;94779.59;;;15.00;31.22
6528;BME280;64597;42.664;23.256;2023-02-21T06:59:46;94783.13;;;15.15;31.28
6528;BME280;64597;42.664;23.256;2023-02-21T07:02:17;94799.13;;;15.72;31.20
6528;BME280;64597;42.664;23.256;2023-02-21T07:04:46;94785.72;;;16.19;29.78
6528;BME280;64597;42.664;23.256;2023-02-21T07:07:12;94775.09;;;16.34;29.33
6528;BME280;64597;42.664;23.256;2023-02-21T07:09:37;94784.66;;;16.30;29.25
6528;BME280;64597;42.664;23.256;2023-02-21T07:12:03;94784.13;;;16.28;29.51
6528;BME280;64597;42.664;23.256;2023-02-21T07:14:29;94780.41;;;16.44;29.32
6528;BME280;64597;42.664;23.256;2023-02-21T07:16:54;94789.19;;;16.29;29.50
6528;BME280;64597;42.664;23.256;2023-02-21T07:19:20;94783.59;;;16.36;29.26
6528;BME280;64597;42.664;23.256;2023-02-21T07:21:45;94773.19;;;16.19;29.45
6528;BME280;64597;42.664;23.256;2023-02-21T07:24:11;94780.25;;;15.68;29.53
6528;BME280;64597;42.664;23.256;2023-02-21T07:26:36;94788.06;;;15.38;30.09
6528;BME280;64597;42.664;23.256;2023-02-21T07:29:03;94783.66;;;15.12;30.97
6528;BME280;64597;42.664;23.256;2023-02-21T07:31:29;94794.66;;;15.31;31.31
6528;BME280;64597;42.664;23.256;2023-02-21T07:33:55;94796.13;;;15.53;30.46
6528;BME280;64597;42.664;23.256;2023-02-21T07:36:20;94778.13;;;15.71;29.98
6528;BME280;64597;42.664;23.256;2023-02-21T07:38:47;94783.44;;;15.65;29.80
6528;BME280;64597;42.664;23.256;2023-02-21T07:41:13;94773.34;;;15.73;30.24
6528;BME280;64597;42.664;23.256;2023-02-21T07:43:39;94771.75;;;15.77;29.59
6528;BME280;64597;42.664;23.256;2023-02-21T07:46:12;94766.47;;;15.82;30.02
6528;BME280;64597;42.664;23.256;2023-02-21T07:48:38;94770.19;;;15.81;30.18
6528;BME280;64597;42.664;23.256;2023-02-21T07:51:05;94762.53;;;15.94;30.16
6528;BME280;64597;42.664;23.256;2023-02-21T07:53:31;94748.41;;;15.89;30.13
6528;BME280;64597;42.664;23.256;2023-02-21T07:55:56;94763.25;;;15.70;30.30
6528;BME280;64597;42.664;23.256;2023-02-21T07:58:21;94755.19;;;15.54;30.28
6528;BME280;64597;42.664;23.256;2023-02-21T08:00:47;94747.50;;;15.53;30.91
6528;BME280;64597;42.664;23.256;2023-02-21T08:03:13;94742.69;;;15.50;30.45
6528;BME280;64597;42.664;23.256;2023-02-21T08:05:39;94751.09;;;15.32;30.75
6528;BME280;64597;42.664;23.256;2023-02-21T08:08:08;94751.56;;;15.19;31.14
6528;BME280;64597;42.664;23.256;2023-02-21T08:10:34;94745.41;;;15.13;31.05
6528;BME280;64597;42.664;23.256;2023-02-21T08:13:00;94755.53;;;15.16;31.73
6528;BME280;64597;42.664;23.256;2023-02-21T08:15:26;94758.69;;;15.13;31.75
6528;BME280;64597;42.664;23.256;2023-02-21T08:17:52;94750.72;;;15.08;31.31
6528;BME280;64597;42.664;23.256;2023-02-21T08:20:17;94761.59;;;15.12;30.86
6528;BME280;64597;42.664;23.256;2023-02-21T08:22:43;94734.28;;;15.21;31.04
6528;BME280;64597;42.664;23.256;2023-02-21T08:25:10;94753.97;;;15.20;31.17
6528;BME280;64597;42.664;23.256;2023-02-21T08:27:43;94763.56;;;15.26;30.50
6528;BME280;64597;42.664;23.256;2023-02-21T08:30:13;94756.63;;;15.20;31.11
6528;BME280;64597;42.664;23.256;2023-02-21T08:32:38;94761.34;;;15.13;31.87
6528;BME280;64597;42.664;23.256;2023-02-21T08:35:04;94755.59;;;14.84;32.62
6528;BME280;64597;42.664;23.256;2023-02-21T08:37:33;94753.53;;;14.97;32.39
6528;BME280;64597;42.664;23.256;2023-02-21T08:40:01;94764.47;;;15.00;32.60
6528;BME280;64597;42.664;23.256;2023-02-21T08:42:26;94751.75;;;14.65;32.88
6528;BME280;64597;42.664;23.256;2023-02-21T08:44:52;94726.72;;;14.56;32.44
6528;BME280;64597;42.664;23.256;2023-02-21T08:47:17;94748.91;;;14.77;32.84
6528;BME280;64597;42.664;23.256;2023-02-21T08:49:44;94752.66;;;14.81;33.07
6528;BME280;64597;42.664;23.256;2023-02-21T08:52:12;94718.50;;;14.58;33.64
6528;BME280;64597;42.664;23.256;2023-02-21T08:54:39;94749.94;;;14.76;33.09
6528;BME280;64597;42.664;23.256;2023-02-21T08:57:05;94744.06;;;14.69;33.27
6528;BME280;64597;42.664;23.256;2023-02-21T08:59:30;94690.81;;;14.39;33.41
6528;BME280;64597;42.664;23.256;2023-02-21T09:01:58;94743.41;;;14.88;33.33
6528;BME280;64597;42.664;23.256;2023-02-21T09:04:24;94738.84;;;14.79;33.21
6528;BME280;64597;42.664;23.256;2023-02-21T09:06:51;94751.09;;;14.85;33.25
6528;BME280;64597;42.664;23.256;2023-02-21T09:09:16;94740.06;;;14.61;33.01
6528;BME280;64597;42.664;23.256;2023-02-21T09:11:42;94733.13;;;14.60;33.76
6528;BME280;64597;42.664;23.256;2023-02-21T09:14:11;94743.16;;;14.90;33.48
6528;BME280;64597;42.664;23.256;2023-02-21T09:16:37;94738.72;;;15.47;32.28
6528;BME280;64597;42.664;23.256;2023-02-21T09:19:03;94724.50;;;15.94;32.02
6528;BME280;64597;42.664;23.256;2023-02-21T09:21:31;94722.13;;;16.27;31.52
6528;BME280;64597;42.664;23.256;2023-02-21T09:23:57;94733.06;;;16.56;30.57
6528;BME280;64597;42.664;23.256;2023-02-21T09:26:23;94719.47;;;16.83;30.20
6528;BME280;64597;42.664;23.256;2023-02-21T09:28:52;94738.59;;;17.25;29.73
6528;BME280;64597;42.664;23.256;2023-02-21T09:31:19;94724.66;;;17.43;29.02
6528;BME280;64597;42.664;23.256;2023-02-21T09:33:45;94713.09;;;17.73;29.10
6528;BME280;64597;42.664;23.256;2023-02-21T09:36:11;94697.41;;;18.10;28.14
6528;BME280;64597;42.664;23.256;2023-02-21T09:38:36;94685.88;;;18.53;28.01
6528;BME280;64597;42.664;23.256;2023-02-21T09:41:08;94696.66;;;19.01;26.77
6528;BME280;64597;42.664;23.256;2023-02-21T09:43:40;94685.13;;;19.34;26.64
6528;BME280;64597;42.664;23.256;2023-02-21T09:46:39;94686.91;;;19.62;25.88
6528;BME280;64597;42.664;23.256;2023-02-21T09:49:32;94687.16;;;20.03;25.55
6528;BME280;64597;42.664;23.256;2023-02-21T09:51:59;94679.13;;;20.40;23.83
6528;BME280;64597;42.664;23.256;2023-02-21T09:54:38;94667.75;;;20.62;22.85
6528;BME280;64597;42.664;23.256;2023-02-21T09:57:11;94670.22;;;20.90;21.18
6528;BME280;64597;42.664;23.256;2023-02-21T09:59:37;94662.63;;;21.24;21.55
6528;BME280;64597;42.664;23.256;2023-02-21T10:07:35;94631.94;;;21.44;18.84
6528;BME280;64597;42.664;23.256;2023-02-21T10:10:23;94638.72;;;21.91;19.91
6528;BME280;64597;42.664;23.256;2023-02-21T10:15:46;94643.72;;;22.06;18.70
6528;BME280;64597;42.664;23.256;2023-02-21T10:18:34;94638.34;;;21.70;18.10
6528;BME280;64597;42.664;23.256;2023-02-21T10:21:03;94635.97;;;21.55;17.98
6528;BME280;64597;42.664;23.256;2023-02-21T10:23:38;94632.47;;;21.68;17.96
6528;BME280;64597;42.664;23.256;2023-02-21T10:26:08;94624.78;;;21.75;17.88
6528;BME280;64597;42.664;23.256;2023-02-21T10:28:35;94630.84;;;21.94;18.06
6528;BME280;64597;42.664;23.256;2023-02-21T10:31:08;94617.91;;;21.96;18.17
6528;BME280;64597;42.664;23.256;2023-02-21T10:33:36;94636.69;;;22.32;18.53
6528;BME280;64597;42.664;23.256;2023-02-21T10:36:10;94612.91;;;22.48;18.40
6528;BME280;64597;42.664;23.256;2023-02-21T10:38:36;94590.88;;;22.37;19.50
6528;BME280;64597;42.664;23.256;2023-02-21T10:41:04;94593.94;;;22.66;19.00
6528;BME280;64597;42.664;23.256;2023-02-21T10:43:34;94615.44;;;22.97;18.67
6528;BME280;64597;42.664;23.256;2023-02-21T10:46:08;94608.56;;;22.82;17.54
6528;BME280;64597;42.664;23.256;2023-02-21T10:48:37;94604.72;;;22.53;18.48
6528;BME280;64597;42.664;23.256;2023-02-21T10:53:37;94591.09;;;22.49;18.46
6528;BME280;64597;42.664;23.256;2023-02-21T10:58:57;94582.88;;;22.68;18.34
6528;BME280;64597;42.664;23.256;2023-02-21T11:04:05;94571.72;;;22.83;17.81
6528;BME280;64597;42.664;23.256;2023-02-21T11:06:37;94566.69;;;22.99;17.82
6528;BME280;64597;42.664;23.256;2023-02-21T11:09:43;94564.41;;;22.75;17.72
6528;BME280;64597;42.664;23.256;2023-02-21T11:12:24;94567.78;;;22.89;18.59
6528;BME280;64597;42.664;23.256;2023-02-21T11:17:18;94561.72;;;22.53;18.20
6528;BME280;64597;42.664;23.256;2023-02-21T11:19:48;94558.94;;;22.58;18.98
6528;BME280;64597;42.664;23.256;2023-02-21T11:22:17;94556.66;;;22.82;18.66
6528;BME280;64597;42.664;23.256;2023-02-21T11:27:16;94534.97;;;22.70;18.70
6528;BME280;64597;42.664;23.256;2023-02-21T11:29:43;94529.03;;;22.90;18.41
6528;BME280;64597;42.664;23.256;2023-02-21T11:32:21;94527.94;;;22.91;18.81
6528;BME280;64597;42.664;23.256;2023-02-21T11:34:49;94509.88;;;22.83;18.24
6528;BME280;64597;42.664;23.256;2023-02-21T11:37:15;94529.94;;;22.77;18.81
6528;BME280;64597;42.664;23.256;2023-02-21T11:39:51;94498.72;;;22.59;17.76
6528;BME280;64597;42.664;23.256;2023-02-21T11:42:31;94524.59;;;22.55;19.06
6528;BME280;64597;42.664;23.256;2023-02-21T11:47:45;94515.66;;;22.68;18.81
6528;BME280;64597;42.664;23.256;2023-02-21T11:50:24;94468.38;;;22.28;20.97
6528;BME280;64597;42.664;23.256;2023-02-21T11:53:25;94500.78;;;23.27;37.81
6528;BME280;64597;42.664;23.256;2023-02-21T11:56:01;94501.31;;;23.54;27.53
6528;BME280;64597;42.664;23.256;2023-02-21T12:01:19;94489.13;;;23.91;28.01
6528;BME280;64597;42.664;23.256;2023-02-21T12:06:37;94481.38;;;23.90;27.34
6528;BME280;64597;42.664;23.256;2023-02-21T12:12:05;94466.09;;;24.28;20.55
6528;BME280;64597;42.664;23.256;2023-02-21T12:17:28;94449.97;;;23.94;19.63
6528;BME280;64597;42.664;23.256;2023-02-21T12:20:29;94457.72;;;23.27;20.02
6528;BME280;64597;42.664;23.256;2023-02-21T12:31:13;94442.28;;;22.59;19.58
6528;BME280;64597;42.664;23.256;2023-02-21T12:36:35;94446.38;;;21.51;20.26
6528;BME280;64597;42.664;23.256;2023-02-21T12:47:29;94441.69;;;20.85;21.44
6528;BME280;64597;42.664;23.256;2023-02-21T12:50:00;94435.13;;;20.77;21.72
6528;BME280;64597;42.664;23.256;2023-02-21T12:52:40;94443.13;;;20.69;21.53
6528;BME280;64597;42.664;23.256;2023-02-21T12:57:59;94416.84;;;20.43;21.70
6528;BME280;64597;42.664;23.256;2023-02-21T13:00:35;94440.53;;;20.50;21.91
6528;BME280;64597;42.664;23.256;2023-02-21T13:05:51;94431.50;;;20.60;21.51
6528;BME280;64597;42.664;23.256;2023-02-21T13:08:29;94413.94;;;20.53;21.77
6528;BME280;64597;42.664;23.256;2023-02-21T13:11:14;94417.81;;;20.47;21.59
6528;BME280;64597;42.664;23.256;2023-02-21T13:13:43;94419.69;;;20.47;21.56
6528;BME280;64597;42.664;23.256;2023-02-21T13:16:11;94404.53;;;20.42;21.49
6528;BME280;64597;42.664;23.256;2023-02-21T13:18:42;94403.03;;;20.36;21.40
6528;BME280;64597;42.664;23.256;2023-02-21T13:24:14;94404.91;;;20.09;21.71
6528;BME280;64597;42.664;23.256;2023-02-21T13:29:16;94398.88;;;20.03;21.65
6528;BME280;64597;42.664;23.256;2023-02-21T13:31:43;94402.91;;;20.14;21.36
6528;BME280;64597;42.664;23.256;2023-02-21T13:34:12;94388.88;;;20.22;21.41
6528;BME280;64597;42.664;23.256;2023-02-21T13:36:45;94397.38;;;20.24;21.33
6528;BME280;64597;42.664;23.256;2023-02-21T14:13:33;94365.59;;;20.72;21.19
6528;BME280;64597;42.664;23.256;2023-02-21T14:18:39;94365.59;;;20.72;21.14
6528;BME280;64597;42.664;23.256;2023-02-21T14:21:20;94377.81;;;20.65;21.21
6528;BME280;64597;42.664;23.256;2023-02-21T14:27:03;94379.91;;;20.54;21.44
6528;BME280;64597;42.664;23.256;2023-02-21T14:48:25;94355.91;;;20.08;20.53
6528;BME280;64597;42.664;23.256;2023-02-21T14:56:27;94358.78;;;19.98;21.16
6528;BME280;64597;42.664;23.256;2023-02-21T14:59:42;94361.84;;;19.92;21.35
6528;BME280;64597;42.664;23.256;2023-02-21T15:02:22;94360.69;;;19.84;20.54
6528;BME280;64597;42.664;23.256;2023-02-21T15:05:20;94363.75;;;19.78;20.08
6528;BME280;64597;42.664;23.256;2023-02-21T15:07:51;94360.19;;;19.68;19.90
6528;BME280;64597;42.664;23.256;2023-02-21T15:10:31;94366.72;;;19.76;19.89
6528;BME280;64597;42.664;23.256;2023-02-21T15:13:03;94358.28;;;19.69;19.88
6528;BME280;64597;42.664;23.256;2023-02-21T15:15:38;94361.25;;;19.67;19.83
6528;BME280;64597;42.664;23.256;2023-02-21T15:18:10;94364.53;;;19.64;20.10
6528;BME280;64597;42.664;23.256;2023-02-21T15:20:41;94362.13;;;19.63;20.35
6528;BME280;64597;42.664;23.256;2023-02-21T15:23:13;94369.16;;;19.59;20.12
6528;BME280;64597;42.664;23.256;2023-02-21T15:25:40;94369.25;;;19.54;20.11
6528;BME280;64597;42.664;23.256;2023-02-21T15:28:22;94371.31;;;19.43;19.92
6528;BME280;64597;42.664;23.256;2023-02-21T15:31:06;94372.97;;;19.39;20.03
6528;BME280;64597;42.664;23.256;2023-02-21T15:33:34;94375.16;;;19.37;19.90
6528;BME280;64597;42.664;23.256;2023-02-21T15:36:01;94372.81;;;19.31;20.13
6528;BME280;64597;42.664;23.256;2023-02-21T15:40:59;94371.69;;;19.18;20.61
6528;BME280;64597;42.664;23.256;2023-02-21T15:43:32;94381.00;;;19.21;20.65
6528;BME280;64597;42.664;23.256;2023-02-21T15:46:02;94383.75;;;19.16;20.62
6528;BME280;64597;42.664;23.256;2023-02-21T15:48:30;94384.91;;;19.10;20.81
6528;BME280;64597;42.664;23.256;2023-02-21T15:51:00;94393.03;;;19.05;20.84
6528;BME280;64597;42.664;23.256;2023-02-21T15:53:27;94388.84;;;18.99;20.74
6528;BME280;64597;42.664;23.256;2023-02-21T15:55:53;94392.75;;;18.87;21.02
6528;BME280;64597;42.664;23.256;2023-02-21T16:01:09;94390.31;;;18.72;21.17
6528;BME280;64597;42.664;23.256;2023-02-21T16:03:42;94390.66;;;18.66;21.07
6528;BME280;64597;42.664;23.256;2023-02-21T16:08:53;94382.16;;;18.40;21.26
6528;BME280;64597;42.664;23.256;2023-02-21T16:14:33;94403.31;;;18.13;22.83
6528;BME280;64597;42.664;23.256;2023-02-21T16:19:50;94413.88;;;17.08;24.95
6528;BME280;64597;42.664;23.256;2023-02-21T16:24:45;94392.41;;;16.51;25.06
6528;BME280;64597;42.664;23.256;2023-02-21T16:27:14;94422.16;;;16.63;24.76
6528;BME280;64597;42.664;23.256;2023-02-21T16:29:40;94422.69;;;16.60;24.66